Time;durP1;ratioP1;P1;durP2;ratioP2;P2;SDS_P1;SDS_P2;PMS_P1;PMS_P2;Temp;Humidity;BMP_temperature;BMP_pressure;BME280_temperature;BME280_humidity;BME280_pressure;Samples;Min_cycle;Max_cycle;Signal;HPM_P1;HPM_P2
2021/12/12 00:01:23;;;;;;;42.95;29.08;;;9.70;96.80;;;;;;5051080;28;20044;-70
2021/12/12 00:04:33;;;;;;;49.83;29.08;;;9.60;97.00;;;;;;5051210;28;20048;-69
2021/12/12 00:07:37;;;;;;;45.40;28.55;;;9.60;97.40;;;;;;5051153;28;20055;-69
2021/12/12 00:10:44;;;;;;;37.53;24.38;;;9.60;97.60;;;;;;5050116;28;20036;-69
2021/12/12 00:13:54;;;;;;;43.55;24.73;;;9.70;97.00;;;;;;5051041;28;20048;-69
2021/12/12 00:16:59;;;;;;;36.05;23.42;;;9.60;97.10;;;;;;5051013;28;20500;-69
2021/12/12 00:20:06;;;;;;;43.65;24.52;;;9.70;97.10;;;;;;5051186;28;20044;-70
2021/12/12 00:23:10;;;;;;;39.95;24.52;;;9.70;97.20;;;;;;5049818;28;20048;-70
2021/12/12 00:26:15;;;;;;;39.33;23.73;;;9.60;97.60;;;;;;5050704;28;20063;-70
2021/12/12 00:29:21;;;;;;;37.35;23.27;;;9.50;98.10;;;;;;5050153;28;20618;-70
2021/12/12 00:32:26;;;;;;;35.33;22.10;;;9.40;98.60;;;;;;5050850;28;20040;-70
2021/12/12 00:35:30;;;;;;;36.03;24.23;;;9.50;98.80;;;;;;5051039;28;20503;-70
2021/12/12 00:38:35;;;;;;;35.67;22.95;;;9.50;98.20;;;;;;5050985;28;20051;-69
2021/12/12 00:41:53;;;;;;;36.60;23.00;;;9.50;98.90;;;;;;5050670;28;20400;-69
2021/12/12 00:44:59;;;;;;;35.17;22.67;;;9.60;99.00;;;;;;5051035;28;20060;-69
2021/12/12 00:48:04;;;;;;;36.95;23.40;;;9.50;98.90;;;;;;5050887;28;20052;-70
2021/12/12 00:51:13;;;;;;;41.50;24.55;;;9.50;99.10;;;;;;5054401;28;20044;-70
2021/12/12 00:54:20;;;;;;;38.50;22.77;;;9.50;99.00;;;;;;5054548;28;20225;-70
2021/12/12 00:57:23;;;;;;;35.72;22.27;;;9.40;99.10;;;;;;5054529;28;20052;-70
2021/12/12 01:00:31;;;;;;;36.22;22.77;;;9.40;99.50;;;;;;5053923;28;20063;-70
2021/12/12 01:03:43;;;;;;;36.70;22.50;;;9.30;99.60;;;;;;5054697;28;20077;-69
2021/12/12 01:06:50;;;;;;;34.90;23.45;;;9.40;99.90;;;;;;5054553;28;20048;-69
2021/12/12 01:10:00;;;;;;;37.75;23.33;;;9.40;99.90;;;;;;5054605;28;20040;-71
2021/12/12 01:13:05;;;;;;;34.20;20.42;;;9.30;99.90;;;;;;5054445;28;20044;-70
2021/12/12 01:16:28;;;;;;;35.92;21.83;;;9.30;99.90;;;;;;5054106;28;20052;-69
2021/12/12 01:19:42;;;;;;;35.40;22.25;;;9.20;99.90;;;;;;5054386;28;20066;-70
2021/12/12 01:22:50;;;;;;;33.35;21.50;;;9.20;99.90;;;;;;5054056;28;20036;-70
2021/12/12 01:25:57;;;;;;;44.40;24.77;;;9.30;99.90;;;;;;5053518;28;20448;-70
2021/12/12 01:29:03;;;;;;;44.35;25.38;;;9.40;99.90;;;;;;5054102;28;20043;-70
2021/12/12 01:32:17;;;;;;;39.92;24.25;;;9.40;99.90;;;;;;5054780;28;20051;-69
2021/12/12 01:35:21;;;;;;;33.72;21.55;;;9.50;99.90;;;;;;5054188;28;20511;-70
2021/12/12 01:41:51;;;;;;;35.50;21.80;;;9.30;99.90;;;;;;5053997;28;20039;-68
2021/12/12 01:45:11;;;;;;;29.98;18.40;;;9.30;99.90;;;;;;5053860;28;20048;-70
2021/12/12 01:48:27;;;;;;;27.55;17.00;;;9.30;99.90;;;;;;5053791;28;20044;-70
2021/12/12 01:51:32;;;;;;;31.73;17.48;;;9.20;99.90;;;;;;5053933;28;20059;-69
2021/12/12 01:54:44;;;;;;;27.40;15.85;;;9.20;99.90;;;;;;5053797;28;20408;-70
2021/12/12 01:57:50;;;;;;;26.00;14.50;;;9.20;99.90;;;;;;5052768;28;20060;-70
2021/12/12 02:00:58;;;;;;;21.95;14.30;;;9.30;99.90;;;;;;5053244;28;20033;-70
2021/12/12 02:04:06;;;;;;;26.88;15.57;;;9.40;99.90;;;;;;5053811;28;20055;-70
2021/12/12 02:07:13;;;;;;;23.40;15.65;;;9.40;99.90;;;;;;5053457;28;20044;-69
2021/12/12 02:10:27;;;;;;;23.85;15.60;;;9.40;99.90;;;;;;5041300;28;20056;-70
2021/12/12 02:13:36;;;;;;;23.65;15.13;;;9.30;99.90;;;;;;5053388;28;20040;-70
2021/12/12 02:16:47;;;;;;;24.30;14.18;;;9.30;99.90;;;;;;5053361;28;20056;-69
2021/12/12 02:36:24;;;;;;;13.77;8.75;;;9.30;99.90;;;;;;5053120;28;20044;-70
2021/12/12 02:39:28;;;;;;;12.43;9.05;;;9.30;99.90;;;;;;5053115;28;20044;-70
2021/12/12 02:42:32;;;;;;;13.95;8.98;;;9.30;99.90;;;;;;5052956;28;20041;-70
2021/12/12 02:45:36;;;;;;;15.15;8.77;;;9.30;99.90;;;;;;5053143;28;20041;-70
2021/12/12 02:48:43;;;;;;;10.88;5.72;;;9.30;99.90;;;;;;5052906;28;20047;-70
2021/12/12 02:51:47;;;;;;;8.93;4.18;;;9.40;99.90;;;;;;5052570;28;20052;-70
2021/12/12 02:54:52;;;;;;;4.00;1.95;;;9.40;99.40;;;;;;5052757;28;20037;-70
2021/12/12 02:58:00;;;;;;;2.67;1.35;;;9.50;95.80;;;;;;5052270;28;20453;-70
2021/12/12 03:01:11;;;;;;;2.35;1.00;;;9.70;94.30;;;;;;5052419;28;20037;-70
2021/12/12 03:04:15;;;;;;;;;;;9.80;93.30;;;;;;5053132;28;20033;-70
2021/12/12 03:07:19;;;;;;;1.63;0.70;;;10.00;92.10;;;;;;5052640;28;19916;-69
2021/12/12 03:10:33;;;;;;;2.42;1.10;;;10.20;91.00;;;;;;5052570;28;20495;-69
2021/12/12 03:13:39;;;;;;;2.35;0.85;;;10.30;90.60;;;;;;5051394;28;20041;-69
2021/12/12 03:16:44;;;;;;;2.63;0.98;;;10.30;90.50;;;;;;5052363;28;20051;-70
2021/12/12 03:19:52;;;;;;;1.77;1.00;;;10.40;90.00;;;;;;5052466;28;20048;-67
2021/12/12 03:23:14;;;;;;;5.53;1.60;;;10.40;89.70;;;;;;5052093;28;20384;-68
2021/12/12 03:26:19;;;;;;;3.88;1.40;;;10.50;90.60;;;;;;5052233;28;20060;-68
2021/12/12 03:29:26;;;;;;;4.00;1.50;;;10.40;91.20;;;;;;5051474;28;20303;-69
2021/12/12 03:32:30;;;;;;;2.63;1.50;;;10.40;90.80;;;;;;5051784;28;20053;-69
2021/12/12 03:35:34;;;;;;;2.53;1.25;;;10.40;91.30;;;;;;5051157;28;20044;-69
2021/12/12 03:38:46;;;;;;;2.85;1.38;;;10.40;91.90;;;;;;5051958;28;20050;-70
2021/12/12 03:41:52;;;;;;;2.40;1.48;;;10.40;93.00;;;;;;5051743;28;20028;-70
2021/12/12 03:44:58;;;;;;;4.72;1.92;;;10.30;93.20;;;;;;5051551;28;20041;-70
2021/12/12 03:48:11;;;;;;;6.72;1.65;;;10.30;93.50;;;;;;5051661;28;20047;-70
2021/12/12 03:51:18;;;;;;;6.40;1.40;;;10.20;93.70;;;;;;5051392;28;20045;-70
2021/12/12 03:54:22;;;;;;;4.53;2.50;;;10.10;94.20;;;;;;5051657;28;20557;-70
2021/12/12 03:57:30;;;;;;;4.40;1.60;;;10.00;94.70;;;;;;5051236;28;20075;-70
2021/12/12 04:00:52;;;;;;;4.80;2.00;;;9.90;95.20;;;;;;5051780;28;20385;-70
2021/12/12 04:03:59;;;;;;;6.18;1.75;;;9.90;95.20;;;;;;5050679;28;20040;-69
2021/12/12 04:07:11;;;;;;;4.85;1.42;;;9.90;95.90;;;;;;5050357;28;20041;-70
2021/12/12 04:10:19;;;;;;;5.03;1.50;;;9.80;93.30;;;;;;5051233;28;20036;-70
2021/12/12 04:13:23;;;;;;;3.22;1.02;;;9.90;93.50;;;;;;5050755;28;20033;-70
2021/12/12 04:16:31;;;;;;;5.03;1.27;;;10.00;93.50;;;;;;5050242;28;20508;-70
2021/12/12 04:19:35;;;;;;;8.43;1.42;;;10.00;93.10;;;;;;5051089;28;20044;-70
2021/12/12 04:22:39;;;;;;;5.05;1.70;;;10.00;92.90;;;;;;5050626;28;20047;-70
2021/12/12 04:25:43;;;;;;;5.88;1.67;;;10.10;92.60;;;;;;5050702;28;20385;-70
2021/12/12 04:29:13;;;;;;;4.55;1.60;;;10.10;92.80;;;;;;5050763;28;20436;-70
2021/12/12 04:32:24;;;;;;;4.28;1.70;;;10.00;92.50;;;;;;5050881;28;20059;-70
2021/12/12 04:35:29;;;;;;;6.38;1.77;;;10.00;93.10;;;;;;5050509;28;20288;-70
2021/12/12 04:38:33;;;;;;;4.20;1.80;;;10.00;93.00;;;;;;5050618;28;20052;-70
2021/12/12 04:41:38;;;;;;;2.38;1.20;;;10.10;93.00;;;;;;5050367;28;20059;-70
2021/12/12 04:44:45;;;;;;;3.42;1.30;;;10.00;93.30;;;;;;5050925;28;20389;-70
2021/12/12 04:51:49;;;;;;;3.38;0.80;;;10.00;92.70;;;;;;5050663;28;20052;-70
2021/12/12 04:55:07;;;;;;;2.33;0.90;;;10.00;92.60;;;;;;5050798;28;20044;-70
2021/12/12 04:58:36;;;;;;;1.42;0.57;;;9.80;92.80;;;;;;5050467;28;20430;-71
2021/12/12 05:01:53;;;;;;;1.45;0.50;;;9.70;93.10;;;;;;5050861;28;20473;-70
2021/12/12 05:05:03;;;;;;;1.45;0.70;;;9.70;92.90;;;;;;5050992;28;20041;-71
2021/12/12 05:08:13;;;;;;;2.67;0.70;;;9.70;92.90;;;;;;5050530;28;20033;-70
2021/12/12 05:11:26;;;;;;;1.67;0.55;;;9.70;92.80;;;;;;5050804;28;20041;-70
2021/12/12 05:14:39;;;;;;;0.52;0.50;;;9.70;92.90;;;;;;5049878;28;20037;-70
2021/12/12 05:17:48;;;;;;;1.42;0.70;;;9.70;92.70;;;;;;5050658;28;20048;-70
2021/12/12 05:20:57;;;;;;;0.77;0.50;;;9.70;92.40;;;;;;5050419;28;20041;-70
2021/12/12 05:24:07;;;;;;;1.13;0.65;;;9.70;92.60;;;;;;5050735;28;20589;-70
2021/12/12 05:27:17;;;;;;;1.00;0.60;;;9.70;92.60;;;;;;5050792;28;20040;-70
2021/12/12 05:30:33;;;;;;;1.42;0.60;;;9.70;92.50;;;;;;5050567;28;20045;-70
2021/12/12 05:33:38;;;;;;;0.40;0.38;;;9.50;92.70;;;;;;5050364;28;20045;-70
2021/12/12 05:36:43;;;;;;;3.15;0.60;;;9.50;92.80;;;;;;5051480;28;20053;-70
2021/12/12 05:39:49;;;;;;;0.77;0.50;;;9.40;92.60;;;;;;5054020;28;20041;-69
2021/12/12 05:42:58;;;;;;;1.23;0.68;;;9.40;92.60;;;;;;5053911;28;20037;-70
2021/12/12 05:46:04;;;;;;;1.55;0.70;;;9.50;92.50;;;;;;5054274;28;20044;-70
2021/12/12 05:49:09;;;;;;;1.30;0.57;;;9.40;92.70;;;;;;5053964;28;20036;-70
2021/12/12 05:52:17;;;;;;;0.55;0.40;;;9.40;92.50;;;;;;5054061;28;20044;-70
2021/12/12 05:55:29;;;;;;;1.20;0.50;;;9.40;92.20;;;;;;5053200;28;20029;-70
2021/12/12 05:58:33;;;;;;;0.70;0.60;;;9.40;92.00;;;;;;5053698;28;20048;-70
2021/12/12 06:01:39;;;;;;;0.65;0.55;;;9.40;92.00;;;;;;5054039;28;20195;-70
2021/12/12 06:04:44;;;;;;;0.85;0.60;;;9.50;92.10;;;;;;5054060;28;20033;-70
2021/12/12 06:07:53;;;;;;;1.20;0.65;;;9.50;92.00;;;;;;5053578;28;20037;-70
2021/12/12 06:10:59;;;;;;;1.30;0.63;;;9.50;91.90;;;;;;5053844;28;20469;-70
2021/12/12 06:14:05;;;;;;;1.05;0.80;;;9.50;91.80;;;;;;5053746;28;20033;-70
2021/12/12 06:17:13;;;;;;;0.95;0.68;;;9.50;91.70;;;;;;5053125;28;20037;-70
2021/12/12 06:20:20;;;;;;;3.47;0.65;;;9.60;91.80;;;;;;5053592;28;20041;-70
2021/12/12 06:23:25;;;;;;;0.70;0.52;;;9.50;91.80;;;;;;5052531;28;20477;-70
2021/12/12 06:26:30;;;;;;;4.10;0.88;;;9.60;91.80;;;;;;5053275;28;20382;-70
2021/12/12 06:29:34;;;;;;;2.42;1.38;;;9.50;91.90;;;;;;5053582;28;20469;-70
2021/12/12 06:32:40;;;;;;;4.35;1.70;;;9.50;92.50;;;;;;5053085;28;20500;-70
2021/12/12 06:35:44;;;;;;;2.78;1.45;;;9.40;92.60;;;;;;5053320;28;20176;-70
2021/12/12 06:38:53;;;;;;;1.40;1.00;;;9.40;93.20;;;;;;5053397;28;20442;-70
2021/12/12 06:41:58;;;;;;;0.57;0.40;;;9.40;92.30;;;;;;5052717;28;20037;-70
2021/12/12 06:45:04;;;;;;;1.80;0.80;;;9.50;91.70;;;;;;5053124;28;20037;-70
2021/12/12 06:48:12;;;;;;;0.93;0.70;;;9.50;91.70;;;;;;5052883;28;20032;-70
2021/12/12 06:51:16;;;;;;;1.40;0.85;;;9.50;91.90;;;;;;5053088;28;20164;-70
2021/12/12 06:54:23;;;;;;;1.90;0.90;;;9.50;91.70;;;;;;5052923;28;20041;-70
2021/12/12 06:57:28;;;;;;;3.97;0.95;;;9.50;91.60;;;;;;5052533;28;20041;-70
2021/12/12 07:00:33;;;;;;;1.50;0.70;;;9.50;91.70;;;;;;5053165;28;20350;-70
2021/12/12 07:03:38;;;;;;;4.85;1.00;;;9.50;91.30;;;;;;5052680;28;20048;-70
2021/12/12 07:06:43;;;;;;;1.40;0.80;;;9.60;91.30;;;;;;5052806;28;20032;-70
2021/12/12 07:09:48;;;;;;;2.10;1.10;;;9.60;91.20;;;;;;5052627;28;20045;-73
2021/12/12 07:12:55;;;;;;;4.75;1.20;;;9.60;90.90;;;;;;5052169;28;20036;-73
2021/12/12 07:16:02;;;;;;;3.40;1.67;;;9.70;90.30;;;;;;5052148;28;20026;-72
2021/12/12 07:19:06;;;;;;;4.32;1.30;;;9.70;90.80;;;;;;5052397;28;20497;-72
2021/12/12 07:22:11;;;;;;;5.28;1.58;;;9.70;90.50;;;;;;5052107;28;20037;-72
2021/12/12 07:25:16;;;;;;;4.72;1.50;;;9.70;90.50;;;;;;5052088;28;20037;-72
2021/12/12 07:28:21;;;;;;;3.40;1.40;;;9.70;90.50;;;;;;5051182;28;20029;-72
2021/12/12 07:31:31;;;;;;;6.28;1.58;;;9.70;90.70;;;;;;5051958;28;20040;-72
2021/12/12 07:34:36;;;;;;;6.18;1.85;;;9.70;90.40;;;;;;5052223;28;20048;-72
2021/12/12 07:37:42;;;;;;;6.78;2.00;;;9.70;90.30;;;;;;5051874;28;20045;-71
2021/12/12 07:40:46;;;;;;;5.80;1.80;;;9.80;90.40;;;;;;5051934;28;20484;-72
2021/12/12 07:43:50;;;;;;;6.18;2.00;;;9.80;90.60;;;;;;5052468;28;20037;-72
2021/12/12 07:46:57;;;;;;;6.30;2.17;;;9.80;90.40;;;;;;5052409;28;20041;-72
2021/12/12 07:50:05;;;;;;;8.45;2.65;;;9.80;90.80;;;;;;5052308;28;20036;-73
2021/12/12 07:53:10;;;;;;;3.60;2.15;;;9.90;90.90;;;;;;5052591;28;20461;-79
2021/12/12 07:56:14;;;;;;;3.65;1.85;;;9.80;90.80;;;;;;5051598;28;20033;-76
2021/12/12 07:59:18;;;;;;;2.03;1.10;;;9.90;90.60;;;;;;5050932;28;20045;-76
2021/12/12 08:02:24;;;;;;;7.38;1.40;;;10.00;90.70;;;;;;5051349;28;20029;-78
2021/12/12 08:05:30;;;;;;;3.75;0.93;;;10.00;90.50;;;;;;5051386;28;20051;-78
2021/12/12 08:08:35;;;;;;;2.47;0.98;;;10.00;90.50;;;;;;5051475;28;20033;-77
2021/12/12 08:11:40;;;;;;;3.88;1.80;;;10.10;90.40;;;;;;5050518;28;20510;-78
2021/12/12 08:14:46;;;;;;;3.33;1.67;;;10.10;90.40;;;;;;5051195;28;20048;-77
2021/12/12 08:17:51;;;;;;;3.67;1.05;;;10.10;90.40;;;;;;5051331;28;20504;-77
2021/12/12 08:20:56;;;;;;;3.53;1.40;;;10.10;90.20;;;;;;5051297;28;20040;-77
2021/12/12 08:24:05;;;;;;;3.80;1.20;;;10.10;90.10;;;;;;5051559;28;20512;-75
2021/12/12 08:27:10;;;;;;;4.43;2.22;;;10.10;90.10;;;;;;5051149;28;20071;-76
2021/12/12 08:30:17;;;;;;;3.50;1.73;;;10.10;90.30;;;;;;5051088;28;20040;-78
2021/12/12 08:33:23;;;;;;;2.00;1.27;;;10.10;90.30;;;;;;5050967;28;20056;-77
2021/12/12 08:36:27;;;;;;;5.65;2.83;;;10.10;89.90;;;;;;5051281;28;20448;-78
2021/12/12 08:39:32;;;;;;;5.50;4.38;;;10.20;90.40;;;;;;5050974;28;20056;-77
2021/12/12 08:42:36;;;;;;;4.68;2.65;;;10.20;90.00;;;;;;5051053;28;20192;-78
2021/12/12 08:45:44;;;;;;;4.45;1.85;;;10.30;89.30;;;;;;5050459;28;20048;-75
2021/12/12 08:48:51;;;;;;;4.65;2.03;;;10.30;90.00;;;;;;5050747;28;20044;-77
2021/12/12 08:52:12;;;;;;;4.18;1.58;;;10.30;90.00;;;;;;5050675;28;20047;-75
2021/12/12 08:55:23;;;;;;;6.15;2.92;;;10.30;89.60;;;;;;5050681;28;20497;-76
2021/12/12 08:58:31;;;;;;;;;;;10.30;89.30;;;;;;5051116;28;20056;-76
2021/12/12 09:01:38;;;;;;;6.03;3.03;;;10.40;88.90;;;;;;5050965;28;19915;-76
2021/12/12 09:04:50;;;;;;;5.35;1.90;;;10.40;88.50;;;;;;5050568;28;20048;-76
2021/12/12 09:08:02;;;;;;;7.53;2.83;;;10.50;87.70;;;;;;5050742;28;20044;-75
2021/12/12 09:11:17;;;;;;;5.63;1.70;;;10.50;86.30;;;;;;5052599;28;20044;-76
2021/12/12 09:14:36;;;;;;;5.68;2.05;;;10.60;86.70;;;;;;5054537;28;20040;-76
2021/12/12 09:17:49;;;;;;;5.43;2.20;;;10.60;85.50;;;;;;5054411;28;20436;-74
2021/12/12 09:21:02;;;;;;;5.38;2.90;;;10.70;85.60;;;;;;5054200;28;20060;-75
2021/12/12 09:24:13;;;;;;;9.32;2.83;;;10.70;86.30;;;;;;5054547;28;20453;-76
2021/12/12 09:27:43;;;;;;;4.53;2.45;;;10.80;86.70;;;;;;5053604;28;20052;-75
2021/12/12 09:30:48;;;;;;;4.90;1.60;;;10.80;85.80;;;;;;5054362;28;20072;-77
2021/12/12 09:33:55;;;;;;;7.28;2.17;;;10.80;84.50;;;;;;5054066;28;20508;-75
2021/12/12 09:37:07;;;;;;;7.57;3.10;;;10.90;85.00;;;;;;5053990;28;20043;-76
2021/12/12 09:40:40;;;;;;;6.40;2.08;;;10.90;85.50;;;;;;5053647;28;20056;-76
2021/12/12 09:43:50;;;;;;;6.22;2.80;;;10.90;84.00;;;;;;5054937;28;20108;-76
2021/12/12 09:54:14;;;;;;;6.95;2.33;;;11.10;84.20;;;;;;5053634;28;20044;-74
2021/12/12 09:58:10;;;;;;;4.18;1.60;;;11.10;83.80;;;;;;5053716;28;20051;-77
2021/12/12 10:01:25;;;;;;;8.48;2.00;;;11.10;84.00;;;;;;5053272;28;20060;-77
2021/12/12 10:04:38;;;;;;;7.35;2.42;;;11.10;83.50;;;;;;5053634;28;20040;-78
2021/12/12 10:08:10;;;;;;;6.35;2.58;;;11.10;83.70;;;;;;5053474;28;20060;-77
2021/12/12 10:11:52;;;;;;;5.97;3.17;;;11.10;85.00;;;;;;5053541;28;20055;-77
2021/12/12 10:14:56;;;;;;;10.30;4.63;;;11.00;84.30;;;;;;5050988;28;20048;-78
2021/12/12 10:18:01;;;;;;;4.30;2.05;;;11.20;83.90;;;;;;5053224;28;20075;-78
2021/12/12 10:21:11;;;;;;;6.25;3.00;;;11.40;82.90;;;;;;5053238;28;20044;-78
2021/12/12 10:24:25;;;;;;;10.15;4.35;;;11.80;82.10;;;;;;5052907;28;20535;-76
2021/12/12 10:27:39;;;;;;;7.88;4.15;;;12.00;82.70;;;;;;5052576;28;20056;-76
2021/12/12 10:30:50;;;;;;;5.47;3.00;;;12.30;81.30;;;;;;5052230;28;20055;-76
2021/12/12 10:33:57;;;;;;;11.27;3.15;;;12.50;81.00;;;;;;5052553;28;20056;-75
2021/12/12 10:37:08;;;;;;;5.07;2.70;;;12.50;80.40;;;;;;5052116;28;20524;-76
2021/12/12 10:40:22;;;;;;;6.72;3.03;;;12.60;81.40;;;;;;5051688;28;20052;-76
2021/12/12 10:43:33;;;;;;;6.03;2.65;;;12.70;77.10;;;;;;5052515;28;20435;-74
2021/12/12 10:46:36;;;;;;;7.35;3.35;;;12.70;77.50;;;;;;5051934;28;20056;-75
2021/12/12 10:49:55;;;;;;;3.08;2.20;;;12.80;76.60;;;;;;5051537;28;20115;-74
2021/12/12 10:53:27;;;;;;;5.20;2.20;;;12.80;76.30;;;;;;5051414;28;20052;-76
2021/12/12 10:56:46;;;;;;;6.88;2.70;;;12.90;76.70;;;;;;5051105;28;20043;-74
2021/12/12 11:00:06;;;;;;;3.92;2.30;;;12.80;75.20;;;;;;5052297;28;20056;-76
2021/12/12 11:03:33;;;;;;;3.40;1.70;;;12.80;75.60;;;;;;5052412;28;20036;-77
2021/12/12 11:06:41;;;;;;;8.18;3.53;;;12.80;75.70;;;;;;5052388;28;20044;-75
2021/12/12 11:09:54;;;;;;;3.80;2.33;;;12.70;77.20;;;;;;5052449;28;20044;-79
2021/12/12 11:13:25;;;;;;;3.97;2.45;;;12.70;75.10;;;;;;5052319;28;20052;-76
2021/12/12 11:16:47;;;;;;;4.70;2.10;;;12.60;75.20;;;;;;5052144;28;20055;-77
2021/12/12 11:20:03;;;;;;;6.18;2.20;;;12.60;75.70;;;;;;5052205;28;20079;-76
2021/12/12 11:23:27;;;;;;;3.95;2.00;;;12.60;76.20;;;;;;5052170;28;20048;-79
2021/12/12 11:26:40;;;;;;;4.30;2.28;;;12.60;75.80;;;;;;5052269;28;20052;-76
2021/12/12 11:29:57;;;;;;;8.73;2.20;;;12.50;76.70;;;;;;5052132;28;20373;-75
2021/12/12 11:33:04;;;;;;;3.33;1.50;;;12.40;76.00;;;;;;5050513;28;20046;-76
2021/12/12 11:36:14;;;;;;;4.05;2.45;;;12.30;74.50;;;;;;5051227;28;20064;-75
2021/12/12 11:39:29;;;;;;;4.82;2.60;;;12.20;75.20;;;;;;5051586;28;20060;-75
2021/12/12 11:42:56;;;;;;;4.13;1.60;;;12.10;75.00;;;;;;5051530;28;20048;-76
2021/12/12 11:46:04;;;;;;;3.63;2.00;;;12.20;75.00;;;;;;5051393;28;20044;-75
2021/12/12 11:49:25;;;;;;;9.23;3.25;;;12.20;74.90;;;;;;5050840;28;20040;-77
2021/12/12 11:53:07;;;;;;;7.73;2.57;;;12.30;74.70;;;;;;5051442;28;20520;-76
2021/12/12 11:56:29;;;;;;;4.22;2.25;;;12.30;74.10;;;;;;5050289;28;20040;-76
2021/12/12 11:59:59;;;;;;;5.82;2.53;;;12.20;73.80;;;;;;5051353;28;20051;-74
2021/12/12 12:03:27;;;;;;;6.53;3.60;;;12.10;74.50;;;;;;5051338;28;20411;-75
2021/12/12 12:06:57;;;;;;;7.05;3.13;;;12.00;75.80;;;;;;5051551;28;20039;-77
2021/12/12 12:10:37;;;;;;;5.75;2.45;;;12.10;75.00;;;;;;5051594;28;20048;-75
2021/12/12 12:13:51;;;;;;;6.50;2.35;;;12.00;73.70;;;;;;5048576;28;20043;-75
2021/12/12 12:17:05;;;;;;;6.70;3.08;;;12.10;74.40;;;;;;5051207;28;20048;-78
2021/12/12 12:20:31;;;;;;;9.95;2.70;;;12.10;75.30;;;;;;5051102;28;20048;-77
2021/12/12 12:27:33;;;;;;;6.93;2.75;;;12.10;75.20;;;;;;5051006;28;20044;-77
2021/12/12 12:30:56;;;;;;;;;;;12.00;73.50;;;;;;5051131;28;20047;-76
2021/12/12 12:34:21;;;;;;;15.63;7.13;;;12.00;74.50;;;;;;5050764;28;19924;-76
2021/12/12 12:37:44;;;;;;;8.07;2.90;;;12.00;75.50;;;;;;5051011;28;20067;-76
2021/12/12 12:41:26;;;;;;;9.65;3.33;;;12.00;74.20;;;;;;5050969;28;20044;-76
2021/12/12 12:45:21;;;;;;;8.63;4.10;;;11.90;74.60;;;;;;5051078;28;20306;-76
2021/12/12 12:48:44;;;;;;;8.77;2.42;;;11.90;75.40;;;;;;5050277;28;20094;-76
2021/12/12 12:52:09;;;;;;;4.63;2.45;;;11.80;74.00;;;;;;5049884;28;20044;-76
2021/12/12 12:55:39;;;;;;;10.65;4.28;;;11.80;74.80;;;;;;5050787;28;20048;-76
2021/12/12 12:59:05;;;;;;;6.05;2.60;;;11.70;74.80;;;;;;5050800;28;20047;-77
2021/12/12 13:02:14;;;;;;;7.95;2.35;;;11.60;74.90;;;;;;5050364;28;20044;-77
2021/12/12 13:05:48;;;;;;;6.72;2.78;;;11.60;75.30;;;;;;5050884;28;20299;-76
2021/12/12 13:09:29;;;;;;;5.70;2.03;;;11.60;75.80;;;;;;5050706;28;20044;-77
2021/12/12 13:12:57;;;;;;;6.32;2.55;;;11.60;75.50;;;;;;5050256;28;20488;-76
2021/12/12 13:16:32;;;;;;;9.10;4.68;;;11.50;75.80;;;;;;5050654;28;20044;-78
2021/12/12 13:20:19;;;;;;;5.28;2.55;;;11.50;76.50;;;;;;5050424;28;20052;-76
2021/12/12 13:23:41;;;;;;;8.25;3.58;;;11.50;77.00;;;;;;5050502;28;20040;-76
2021/12/12 13:27:26;;;;;;;8.00;3.42;;;11.40;77.70;;;;;;5050504;28;20040;-79
2021/12/12 13:30:58;;;;;;;9.13;3.50;;;11.50;77.20;;;;;;5050254;28;20040;-76
2021/12/12 13:34:08;;;;;;;8.18;2.65;;;11.50;77.60;;;;;;5050148;28;20049;-74
2021/12/12 13:38:03;;;;;;;5.45;2.03;;;11.40;77.20;;;;;;5050244;28;20044;-78
2021/12/12 13:41:32;;;;;;;10.77;4.50;;;11.40;75.80;;;;;;5047819;28;20056;-73
2021/12/12 13:45:08;;;;;;;5.47;3.03;;;11.40;75.80;;;;;;5051603;28;20056;-73
2021/12/12 13:48:49;;;;;;;8.70;3.28;;;11.40;75.10;;;;;;5049431;28;20143;-74
2021/12/12 13:52:31;;;;;;;5.53;2.25;;;11.40;75.20;;;;;;5050343;28;20044;-73
2021/12/12 13:55:41;;;;;;;;;;;11.40;75.40;;;;;;5050726;28;20119;-73
2021/12/12 13:59:03;;;;;;;9.23;2.88;;;11.40;76.50;;;;;;5052782;28;19992;-73
2021/12/12 14:02:10;;;;;;;11.05;3.70;;;11.30;76.40;;;;;;5053587;28;20516;-73
2021/12/12 14:05:37;;;;;;;9.57;3.42;;;11.20;76.70;;;;;;5053695;28;20397;-74
2021/12/12 14:08:52;;;;;;;8.00;3.67;;;11.10;77.50;;;;;;5052587;28;20052;-73
2021/12/12 14:11:59;;;;;;;6.20;2.72;;;11.10;77.80;;;;;;5052673;28;20056;-72
2021/12/12 14:15:12;;;;;;;7.45;4.25;;;11.10;77.80;;;;;;5052478;28;20417;-73
2021/12/12 14:18:19;;;;;;;7.00;2.67;;;11.10;79.00;;;;;;5051768;28;20052;-72
2021/12/12 14:21:24;;;;;;;7.47;1.92;;;11.10;79.10;;;;;;5053011;28;20056;-73
2021/12/12 14:24:31;;;;;;;8.35;2.60;;;11.00;78.00;;;;;;5053254;28;20043;-73
2021/12/12 14:27:36;;;;;;;8.35;2.65;;;11.00;79.20;;;;;;5053138;28;20047;-73
2021/12/12 14:30:43;;;;;;;4.78;2.30;;;11.00;79.70;;;;;;5052960;28;20040;-73
2021/12/12 14:33:55;;;;;;;3.50;1.60;;;10.90;79.80;;;;;;5052025;28;20063;-73
2021/12/12 14:37:05;;;;;;;8.90;3.85;;;11.00;78.50;;;;;;5053126;28;20306;-72
2021/12/12 14:40:21;;;;;;;7.20;2.65;;;11.00;80.20;;;;;;5053206;28;20048;-73
2021/12/12 14:43:42;;;;;;;4.97;2.50;;;11.00;80.20;;;;;;5052967;28;20044;-72
2021/12/12 14:46:51;;;;;;;4.65;2.72;;;11.00;79.50;;;;;;5053179;28;20539;-73
2021/12/12 14:50:06;;;;;;;4.32;2.58;;;10.90;80.00;;;;;;5052961;28;20036;-72
2021/12/12 14:53:12;;;;;;;5.57;2.55;;;10.90;79.50;;;;;;5052991;28;20044;-72
2021/12/12 14:56:32;;;;;;;5.40;2.17;;;10.90;78.90;;;;;;5052871;28;20134;-72
2021/12/12 14:59:40;;;;;;;5.57;2.10;;;10.90;79.40;;;;;;5052480;28;20056;-72
2021/12/12 15:02:58;;;;;;;7.50;3.38;;;10.90;79.60;;;;;;5053210;28;20040;-73
2021/12/12 15:06:11;;;;;;;9.07;3.05;;;11.00;80.00;;;;;;5051445;28;20432;-72
2021/12/12 15:09:20;;;;;;;7.32;2.47;;;10.90;80.10;;;;;;5052100;28;20362;-72
2021/12/12 15:12:29;;;;;;;4.65;2.20;;;10.80;80.10;;;;;;5052509;28;20056;-71
2021/12/12 15:15:37;;;;;;;5.82;2.67;;;10.70;81.10;;;;;;5052526;28;20044;-71
2021/12/12 15:18:45;;;;;;;7.00;2.85;;;10.60;81.40;;;;;;5052100;28;20478;-72
2021/12/12 15:22:02;;;;;;;7.03;2.92;;;10.50;81.40;;;;;;5052318;28;20048;-72
2021/12/12 15:25:41;;;;;;;7.65;3.70;;;10.50;82.10;;;;;;5052132;28;20052;-72
2021/12/12 15:28:49;;;;;;;8.43;3.80;;;10.40;82.70;;;;;;5052082;28;20059;-71
2021/12/12 15:31:57;;;;;;;7.18;3.33;;;10.40;82.50;;;;;;5052034;28;20091;-71
2021/12/12 15:35:06;;;;;;;8.50;3.45;;;10.40;81.50;;;;;;5051100;28;20056;-71
2021/12/12 15:38:23;;;;;;;9.55;5.43;;;10.40;81.50;;;;;;5051847;28;20048;-72
2021/12/12 15:41:35;;;;;;;7.55;3.20;;;10.40;82.20;;;;;;5052229;28;20060;-73
2021/12/12 15:44:43;;;;;;;10.13;4.35;;;10.30;81.00;;;;;;5051665;28;20504;-71
2021/12/12 15:47:49;;;;;;;9.10;4.20;;;10.40;81.30;;;;;;5051775;28;20393;-71
2021/12/12 15:50:55;;;;;;;10.73;5.78;;;10.40;81.90;;;;;;5051535;28;20048;-73
2021/12/12 15:54:09;;;;;;;10.77;5.35;;;10.20;82.50;;;;;;5051769;28;20063;-72
2021/12/12 15:57:17;;;;;;;12.02;5.18;;;10.10;83.40;;;;;;5051643;28;20044;-73
2021/12/12 16:00:23;;;;;;;9.40;4.68;;;10.00;83.00;;;;;;5050591;28;20314;-72
2021/12/12 16:03:28;;;;;;;9.40;3.85;;;10.00;83.10;;;;;;5051379;28;20040;-72
2021/12/12 16:06:38;;;;;;;5.28;3.55;;;9.90;83.10;;;;;;5039243;28;20048;-72
2021/12/12 16:09:46;;;;;;;7.60;3.72;;;9.90;83.30;;;;;;5050662;28;20037;-72
2021/12/12 16:12:52;;;;;;;15.45;7.72;;;9.90;82.80;;;;;;5051616;28;20037;-71
2021/12/12 16:16:08;;;;;;;6.43;4.80;;;10.00;81.30;;;;;;5051044;28;20052;-72
2021/12/12 16:19:19;;;;;;;11.15;4.40;;;10.00;81.00;;;;;;5050937;28;20055;-71
2021/12/12 16:22:34;;;;;;;12.25;4.55;;;10.10;81.10;;;;;;5050861;28;20044;-72
2021/12/12 16:25:40;;;;;;;12.48;6.55;;;10.10;80.80;;;;;;5050638;28;20518;-71
2021/12/12 16:28:44;;;;;;;12.45;7.10;;;10.10;80.50;;;;;;5050761;28;20385;-72
2021/12/12 16:31:59;;;;;;;8.57;4.80;;;10.10;80.20;;;;;;5050846;28;20052;-71
2021/12/12 16:35:14;;;;;;;12.75;5.90;;;10.20;79.50;;;;;;5051082;28;20131;-72
2021/12/12 16:38:25;;;;;;;8.75;5.50;;;10.20;79.10;;;;;;5050795;28;20056;-71
2021/12/12 16:41:39;;;;;;;11.33;7.97;;;10.20;78.50;;;;;;5050903;28;20047;-72
2021/12/12 16:45:09;;;;;;;9.15;5.18;;;10.30;77.10;;;;;;5050831;28;20040;-72
2021/12/12 16:48:22;;;;;;;12.60;7.07;;;10.30;77.70;;;;;;5050659;28;20056;-73
2021/12/12 16:51:37;;;;;;;22.33;9.20;;;10.30;77.40;;;;;;5050953;28;20052;-71
2021/12/12 16:54:48;;;;;;;13.55;6.13;;;10.40;77.40;;;;;;5050677;28;20043;-71
2021/12/12 16:58:00;;;;;;;9.55;5.40;;;10.40;78.70;;;;;;5049847;28;20044;-71
2021/12/12 17:01:11;;;;;;;9.45;4.70;;;10.40;79.30;;;;;;5050705;28;20052;-71
2021/12/12 17:04:20;;;;;;;9.90;3.83;;;10.40;78.10;;;;;;5050777;28;20052;-71
2021/12/12 17:07:29;;;;;;;8.48;4.32;;;10.40;79.00;;;;;;5049598;28;20595;-71
2021/12/12 17:10:38;;;;;;;7.03;4.25;;;10.30;78.40;;;;;;5050572;28;20396;-71
2021/12/12 17:13:43;;;;;;;14.05;6.18;;;10.40;79.00;;;;;;5049716;28;20048;-73
2021/12/12 17:16:52;;;;;;;14.55;5.57;;;10.30;79.10;;;;;;5050629;28;20503;-71